sensor_id;sensor_type;location;lat;lon;timestamp;temperature;humidity
52016;DHT22;38032;53.326;6.472;2023-07-31T00:01:25;17.70;99.90
52016;DHT22;38032;53.326;6.472;2023-07-31T00:03:51;17.70;99.90
52016;DHT22;38032;53.326;6.472;2023-07-31T00:06:17;17.70;99.90
52016;DHT22;38032;53.326;6.472;2023-07-31T00:08:43;17.70;99.90
52016;DHT22;38032;53.326;6.472;2023-07-31T00:11:09;17.60;99.90
52016;DHT22;38032;53.326;6.472;2023-07-31T00:13:34;17.70;99.90
52016;DHT22;38032;53.326;6.472;2023-07-31T00:16:01;17.70;99.90
52016;DHT22;38032;53.326;6.472;2023-07-31T00:18:27;17.70;99.90
52016;DHT22;38032;53.326;6.472;2023-07-31T00:20:53;17.70;99.90
52016;DHT22;38032;53.326;6.472;2023-07-31T00:23:19;17.70;99.90
52016;DHT22;38032;53.326;6.472;2023-07-31T00:25:45;17.70;99.90
52016;DHT22;38032;53.326;6.472;2023-07-31T00:28:11;17.70;99.90
52016;DHT22;38032;53.326;6.472;2023-07-31T00:30:36;17.70;99.90
52016;DHT22;38032;53.326;6.472;2023-07-31T00:33:02;17.70;99.90
52016;DHT22;38032;53.326;6.472;2023-07-31T00:35:28;17.70;99.90
52016;DHT22;38032;53.326;6.472;2023-07-31T00:37:56;17.70;99.90
52016;DHT22;38032;53.326;6.472;2023-07-31T00:40:21;17.60;99.90
52016;DHT22;38032;53.326;6.472;2023-07-31T00:42:47;17.70;99.90
52016;DHT22;38032;53.326;6.472;2023-07-31T00:45:13;17.70;99.90
52016;DHT22;38032;53.326;6.472;2023-07-31T00:47:39;17.70;99.90
52016;DHT22;38032;53.326;6.472;2023-07-31T00:50:06;17.70;99.90
52016;DHT22;38032;53.326;6.472;2023-07-31T00:52:33;17.60;99.90
52016;DHT22;38032;53.326;6.472;2023-07-31T00:54:59;17.70;99.90
52016;DHT22;38032;53.326;6.472;2023-07-31T00:57:25;17.70;99.90
52016;DHT22;38032;53.326;6.472;2023-07-31T00:59:51;17.70;99.90
52016;DHT22;38032;53.326;6.472;2023-07-31T01:02:17;17.70;99.90
52016;DHT22;38032;53.326;6.472;2023-07-31T01:04:43;17.60;99.90
52016;DHT22;38032;53.326;6.472;2023-07-31T01:09:53;17.60;99.90
52016;DHT22;38032;53.326;6.472;2023-07-31T01:12:21;17.60;99.90
52016;DHT22;38032;53.326;6.472;2023-07-31T01:15:02;17.60;99.90
52016;DHT22;38032;53.326;6.472;2023-07-31T01:17:28;17.60;99.90
52016;DHT22;38032;53.326;6.472;2023-07-31T01:20:00;17.70;99.90
52016;DHT22;38032;53.326;6.472;2023-07-31T01:22:54;17.60;99.90
52016;DHT22;38032;53.326;6.472;2023-07-31T01:28:19;17.60;99.90
52016;DHT22;38032;53.326;6.472;2023-07-31T01:30:48;17.60;99.90
52016;DHT22;38032;53.326;6.472;2023-07-31T01:33:15;17.60;99.90
52016;DHT22;38032;53.326;6.472;2023-07-31T01:35:44;17.60;99.90
52016;DHT22;38032;53.326;6.472;2023-07-31T01:38:10;17.60;99.90
52016;DHT22;38032;53.326;6.472;2023-07-31T01:40:36;17.60;99.90
52016;DHT22;38032;53.326;6.472;2023-07-31T01:43:02;17.60;99.90
52016;DHT22;38032;53.326;6.472;2023-07-31T01:45:28;17.60;99.90
52016;DHT22;38032;53.326;6.472;2023-07-31T01:47:54;17.60;99.90
52016;DHT22;38032;53.326;6.472;2023-07-31T01:50:20;17.60;99.90
52016;DHT22;38032;53.326;6.472;2023-07-31T01:52:46;17.50;99.90
52016;DHT22;38032;53.326;6.472;2023-07-31T01:55:12;17.50;99.90
52016;DHT22;38032;53.326;6.472;2023-07-31T01:57:37;17.50;99.90
52016;DHT22;38032;53.326;6.472;2023-07-31T02:00:04;17.50;99.90
52016;DHT22;38032;53.326;6.472;2023-07-31T02:02:31;17.50;99.90
52016;DHT22;38032;53.326;6.472;2023-07-31T02:04:57;17.50;99.90
52016;DHT22;38032;53.326;6.472;2023-07-31T02:07:23;17.50;99.90
52016;DHT22;38032;53.326;6.472;2023-07-31T02:09:49;17.50;99.90
52016;DHT22;38032;53.326;6.472;2023-07-31T02:12:15;17.50;99.90
52016;DHT22;38032;53.326;6.472;2023-07-31T02:14:41;17.50;99.90
52016;DHT22;38032;53.326;6.472;2023-07-31T02:17:07;17.50;99.90
52016;DHT22;38032;53.326;6.472;2023-07-31T02:19:33;17.50;99.90
52016;DHT22;38032;53.326;6.472;2023-07-31T02:21:59;17.50;99.90
52016;DHT22;38032;53.326;6.472;2023-07-31T02:24:25;17.50;99.90
52016;DHT22;38032;53.326;6.472;2023-07-31T02:26:51;17.50;99.90
52016;DHT22;38032;53.326;6.472;2023-07-31T02:29:16;17.40;99.90
52016;DHT22;38032;53.326;6.472;2023-07-31T02:31:42;17.40;99.90
52016;DHT22;38032;53.326;6.472;2023-07-31T02:34:08;17.40;99.90
52016;DHT22;38032;53.326;6.472;2023-07-31T02:36:34;17.40;99.90
52016;DHT22;38032;53.326;6.472;2023-07-31T02:39:00;17.40;99.90
52016;DHT22;38032;53.326;6.472;2023-07-31T02:41:26;17.40;99.90
52016;DHT22;38032;53.326;6.472;2023-07-31T02:43:52;17.40;99.90
52016;DHT22;38032;53.326;6.472;2023-07-31T02:46:18;17.40;99.90
52016;DHT22;38032;53.326;6.472;2023-07-31T02:48:44;17.40;99.90
52016;DHT22;38032;53.326;6.472;2023-07-31T02:51:11;17.40;99.90
52016;DHT22;38032;53.326;6.472;2023-07-31T02:53:36;17.30;99.90
52016;DHT22;38032;53.326;6.472;2023-07-31T02:56:02;17.40;99.90
52016;DHT22;38032;53.326;6.472;2023-07-31T02:58:28;17.30;99.90
52016;DHT22;38032;53.326;6.472;2023-07-31T03:00:54;17.30;99.90
52016;DHT22;38032;53.326;6.472;2023-07-31T03:03:20;17.30;99.90
52016;DHT22;38032;53.326;6.472;2023-07-31T03:05:46;17.30;99.90
52016;DHT22;38032;53.326;6.472;2023-07-31T03:08:12;17.30;99.90
52016;DHT22;38032;53.326;6.472;2023-07-31T03:10:38;17.30;99.90
52016;DHT22;38032;53.326;6.472;2023-07-31T03:13:04;17.30;99.90
52016;DHT22;38032;53.326;6.472;2023-07-31T03:15:29;17.30;99.90
52016;DHT22;38032;53.326;6.472;2023-07-31T03:17:55;17.30;99.90
52016;DHT22;38032;53.326;6.472;2023-07-31T03:20:21;17.20;99.90
52016;DHT22;38032;53.326;6.472;2023-07-31T03:22:47;17.30;99.90
52016;DHT22;38032;53.326;6.472;2023-07-31T03:25:13;17.30;99.90
52016;DHT22;38032;53.326;6.472;2023-07-31T03:27:40;17.20;99.90
52016;DHT22;38032;53.326;6.472;2023-07-31T03:30:06;17.20;99.90
52016;DHT22;38032;53.326;6.472;2023-07-31T03:32:32;17.20;99.90
52016;DHT22;38032;53.326;6.472;2023-07-31T03:34:58;17.20;99.90
52016;DHT22;38032;53.326;6.472;2023-07-31T03:37:24;17.20;99.90
52016;DHT22;38032;53.326;6.472;2023-07-31T03:39:50;17.20;99.90
52016;DHT22;38032;53.326;6.472;2023-07-31T03:42:16;17.20;99.90
52016;DHT22;38032;53.326;6.472;2023-07-31T03:44:42;17.20;99.90
52016;DHT22;38032;53.326;6.472;2023-07-31T03:47:08;17.20;99.90
52016;DHT22;38032;53.326;6.472;2023-07-31T03:49:34;17.20;99.90
52016;DHT22;38032;53.326;6.472;2023-07-31T03:52:00;17.20;99.90
52016;DHT22;38032;53.326;6.472;2023-07-31T03:54:26;17.20;99.90
52016;DHT22;38032;53.326;6.472;2023-07-31T03:56:52;17.20;99.90
52016;DHT22;38032;53.326;6.472;2023-07-31T03:59:17;17.20;99.90
52016;DHT22;38032;53.326;6.472;2023-07-31T04:01:43;17.20;99.90
52016;DHT22;38032;53.326;6.472;2023-07-31T04:04:09;17.10;99.90
52016;DHT22;38032;53.326;6.472;2023-07-31T04:06:35;17.20;99.90
52016;DHT22;38032;53.326;6.472;2023-07-31T04:09:02;17.20;99.90
52016;DHT22;38032;53.326;6.472;2023-07-31T04:11:28;17.20;99.90
52016;DHT22;38032;53.326;6.472;2023-07-31T04:13:54;17.10;99.90
52016;DHT22;38032;53.326;6.472;2023-07-31T04:16:20;17.10;99.90
52016;DHT22;38032;53.326;6.472;2023-07-31T04:18:46;17.10;99.90
52016;DHT22;38032;53.326;6.472;2023-07-31T04:21:12;17.10;99.90
52016;DHT22;38032;53.326;6.472;2023-07-31T04:23:38;17.10;99.90
52016;DHT22;38032;53.326;6.472;2023-07-31T04:26:04;17.10;99.90
52016;DHT22;38032;53.326;6.472;2023-07-31T04:28:30;17.10;99.90
52016;DHT22;38032;53.326;6.472;2023-07-31T04:30:57;17.10;99.90
52016;DHT22;38032;53.326;6.472;2023-07-31T04:33:23;17.10;99.90
52016;DHT22;38032;53.326;6.472;2023-07-31T04:35:51;17.10;99.90
52016;DHT22;38032;53.326;6.472;2023-07-31T04:38:19;17.10;99.90
52016;DHT22;38032;53.326;6.472;2023-07-31T04:40:45;17.10;99.90
52016;DHT22;38032;53.326;6.472;2023-07-31T04:43:11;17.00;99.90
52016;DHT22;38032;53.326;6.472;2023-07-31T04:45:37;17.10;99.90
52016;DHT22;38032;53.326;6.472;2023-07-31T04:48:03;17.10;99.90
52016;DHT22;38032;53.326;6.472;2023-07-31T04:50:29;17.10;99.90
52016;DHT22;38032;53.326;6.472;2023-07-31T04:52:56;17.10;99.90
52016;DHT22;38032;53.326;6.472;2023-07-31T04:55:22;17.10;99.90
52016;DHT22;38032;53.326;6.472;2023-07-31T04:57:48;17.10;99.90
52016;DHT22;38032;53.326;6.472;2023-07-31T05:00:14;17.10;99.90
52016;DHT22;38032;53.326;6.472;2023-07-31T05:02:39;17.10;99.90
52016;DHT22;38032;53.326;6.472;2023-07-31T05:05:06;17.10;99.90
52016;DHT22;38032;53.326;6.472;2023-07-31T05:07:31;17.10;99.90
52016;DHT22;38032;53.326;6.472;2023-07-31T05:09:57;17.10;99.90
52016;DHT22;38032;53.326;6.472;2023-07-31T05:12:23;17.10;99.90
52016;DHT22;38032;53.326;6.472;2023-07-31T05:14:49;17.10;99.90
52016;DHT22;38032;53.326;6.472;2023-07-31T05:17:15;17.00;99.90
52016;DHT22;38032;53.326;6.472;2023-07-31T05:19:41;17.00;99.90
52016;DHT22;38032;53.326;6.472;2023-07-31T05:22:07;17.00;99.90
52016;DHT22;38032;53.326;6.472;2023-07-31T05:24:33;17.00;99.90
52016;DHT22;38032;53.326;6.472;2023-07-31T05:26:59;16.90;99.90
52016;DHT22;38032;53.326;6.472;2023-07-31T05:29:25;17.10;99.90
52016;DHT22;38032;53.326;6.472;2023-07-31T05:31:51;17.00;99.90
52016;DHT22;38032;53.326;6.472;2023-07-31T05:34:17;17.20;99.90
52016;DHT22;38032;53.326;6.472;2023-07-31T05:36:43;17.00;99.90
52016;DHT22;38032;53.326;6.472;2023-07-31T05:39:08;16.90;99.90
52016;DHT22;38032;53.326;6.472;2023-07-31T05:41:35;17.10;99.90
52016;DHT22;38032;53.326;6.472;2023-07-31T05:44:01;17.00;99.90
52016;DHT22;38032;53.326;6.472;2023-07-31T05:46:27;17.00;99.90
52016;DHT22;38032;53.326;6.472;2023-07-31T05:48:53;17.00;99.90
52016;DHT22;38032;53.326;6.472;2023-07-31T05:51:19;17.00;99.90
52016;DHT22;38032;53.326;6.472;2023-07-31T05:53:45;17.00;99.90
52016;DHT22;38032;53.326;6.472;2023-07-31T05:56:10;17.00;99.90
52016;DHT22;38032;53.326;6.472;2023-07-31T05:58:36;17.00;99.90
52016;DHT22;38032;53.326;6.472;2023-07-31T06:01:02;17.10;99.90
52016;DHT22;38032;53.326;6.472;2023-07-31T06:03:28;17.00;99.90
52016;DHT22;38032;53.326;6.472;2023-07-31T06:05:54;16.90;99.90
52016;DHT22;38032;53.326;6.472;2023-07-31T06:08:20;17.10;99.90
52016;DHT22;38032;53.326;6.472;2023-07-31T06:10:46;17.00;99.90
52016;DHT22;38032;53.326;6.472;2023-07-31T06:13:12;17.10;99.90
52016;DHT22;38032;53.326;6.472;2023-07-31T06:15:38;17.10;99.90
52016;DHT22;38032;53.326;6.472;2023-07-31T06:18:04;17.10;99.90
52016;DHT22;38032;53.326;6.472;2023-07-31T06:20:34;17.10;99.90
52016;DHT22;38032;53.326;6.472;2023-07-31T06:23:00;17.10;99.90
52016;DHT22;38032;53.326;6.472;2023-07-31T06:25:26;17.20;99.90
52016;DHT22;38032;53.326;6.472;2023-07-31T06:27:51;17.20;99.90
52016;DHT22;38032;53.326;6.472;2023-07-31T06:30:17;17.10;99.90
52016;DHT22;38032;53.326;6.472;2023-07-31T06:32:43;17.20;99.90
52016;DHT22;38032;53.326;6.472;2023-07-31T06:35:09;17.10;99.90
52016;DHT22;38032;53.326;6.472;2023-07-31T06:37:35;17.30;99.90
52016;DHT22;38032;53.326;6.472;2023-07-31T06:40:01;17.40;99.90
52016;DHT22;38032;53.326;6.472;2023-07-31T06:42:27;17.40;99.90
52016;DHT22;38032;53.326;6.472;2023-07-31T06:44:53;17.30;99.90
52016;DHT22;38032;53.326;6.472;2023-07-31T06:47:19;17.60;99.90
52016;DHT22;38032;53.326;6.472;2023-07-31T06:49:45;17.50;99.90
52016;DHT22;38032;53.326;6.472;2023-07-31T06:52:11;17.60;99.90
52016;DHT22;38032;53.326;6.472;2023-07-31T06:54:37;17.50;99.90
52016;DHT22;38032;53.326;6.472;2023-07-31T06:57:03;17.70;99.90
52016;DHT22;38032;53.326;6.472;2023-07-31T06:59:29;17.70;99.90
52016;DHT22;38032;53.326;6.472;2023-07-31T07:01:55;17.80;99.90
52016;DHT22;38032;53.326;6.472;2023-07-31T07:04:21;17.70;99.90
52016;DHT22;38032;53.326;6.472;2023-07-31T07:06:47;17.60;99.90
52016;DHT22;38032;53.326;6.472;2023-07-31T07:09:13;17.80;99.90
52016;DHT22;38032;53.326;6.472;2023-07-31T07:11:38;17.90;99.90
52016;DHT22;38032;53.326;6.472;2023-07-31T07:14:04;18.00;99.90
52016;DHT22;38032;53.326;6.472;2023-07-31T07:16:30;18.00;99.90
52016;DHT22;38032;53.326;6.472;2023-07-31T07:18:56;18.10;99.90
52016;DHT22;38032;53.326;6.472;2023-07-31T07:21:23;18.20;99.90
52016;DHT22;38032;53.326;6.472;2023-07-31T07:23:49;18.30;99.90
52016;DHT22;38032;53.326;6.472;2023-07-31T07:26:15;18.20;99.90
52016;DHT22;38032;53.326;6.472;2023-07-31T07:28:41;18.20;99.90
52016;DHT22;38032;53.326;6.472;2023-07-31T07:31:07;18.20;99.90
52016;DHT22;38032;53.326;6.472;2023-07-31T07:33:32;18.30;99.90
52016;DHT22;38032;53.326;6.472;2023-07-31T07:36:16;18.30;99.90
52016;DHT22;38032;53.326;6.472;2023-07-31T07:38:42;18.30;99.90
52016;DHT22;38032;53.326;6.472;2023-07-31T07:41:08;18.30;99.90
52016;DHT22;38032;53.326;6.472;2023-07-31T07:43:34;18.30;99.90
52016;DHT22;38032;53.326;6.472;2023-07-31T07:46:00;18.30;99.90
52016;DHT22;38032;53.326;6.472;2023-07-31T07:48:26;18.40;99.90
52016;DHT22;38032;53.326;6.472;2023-07-31T07:50:52;18.40;99.90
52016;DHT22;38032;53.326;6.472;2023-07-31T07:53:18;18.40;99.90
52016;DHT22;38032;53.326;6.472;2023-07-31T07:55:44;18.40;99.90
52016;DHT22;38032;53.326;6.472;2023-07-31T07:58:10;18.40;99.90
52016;DHT22;38032;53.326;6.472;2023-07-31T08:00:35;18.50;99.90
52016;DHT22;38032;53.326;6.472;2023-07-31T08:03:01;18.50;99.90
52016;DHT22;38032;53.326;6.472;2023-07-31T08:05:28;18.50;99.90
52016;DHT22;38032;53.326;6.472;2023-07-31T08:07:54;18.50;99.90
52016;DHT22;38032;53.326;6.472;2023-07-31T08:10:20;18.60;99.90
52016;DHT22;38032;53.326;6.472;2023-07-31T08:12:46;18.60;99.90
52016;DHT22;38032;53.326;6.472;2023-07-31T08:15:11;18.60;99.90
52016;DHT22;38032;53.326;6.472;2023-07-31T08:17:37;18.60;99.90
52016;DHT22;38032;53.326;6.472;2023-07-31T08:20:04;18.60;99.90
52016;DHT22;38032;53.326;6.472;2023-07-31T08:22:30;18.70;99.90
52016;DHT22;38032;53.326;6.472;2023-07-31T08:24:57;18.60;99.90
52016;DHT22;38032;53.326;6.472;2023-07-31T08:27:22;18.70;99.90
52016;DHT22;38032;53.326;6.472;2023-07-31T08:29:48;18.70;99.90
52016;DHT22;38032;53.326;6.472;2023-07-31T08:32:14;18.80;99.90
52016;DHT22;38032;53.326;6.472;2023-07-31T08:34:40;18.70;99.90
52016;DHT22;38032;53.326;6.472;2023-07-31T08:37:07;18.80;99.90
52016;DHT22;38032;53.326;6.472;2023-07-31T08:39:33;18.90;99.90
52016;DHT22;38032;53.326;6.472;2023-07-31T08:41:59;18.80;99.90
52016;DHT22;38032;53.326;6.472;2023-07-31T08:44:26;18.80;99.90
52016;DHT22;38032;53.326;6.472;2023-07-31T08:46:52;18.80;99.90
52016;DHT22;38032;53.326;6.472;2023-07-31T08:49:20;18.90;99.90
52016;DHT22;38032;53.326;6.472;2023-07-31T08:51:49;19.00;99.90
52016;DHT22;38032;53.326;6.472;2023-07-31T08:54:16;18.90;99.90
52016;DHT22;38032;53.326;6.472;2023-07-31T08:56:42;18.90;99.90
52016;DHT22;38032;53.326;6.472;2023-07-31T08:59:09;19.00;99.90
52016;DHT22;38032;53.326;6.472;2023-07-31T09:01:42;19.10;99.90
52016;DHT22;38032;53.326;6.472;2023-07-31T09:04:09;19.10;99.90
52016;DHT22;38032;53.326;6.472;2023-07-31T09:06:37;19.20;99.90
52016;DHT22;38032;53.326;6.472;2023-07-31T09:09:04;19.30;99.90
52016;DHT22;38032;53.326;6.472;2023-07-31T09:11:30;19.30;99.90
52016;DHT22;38032;53.326;6.472;2023-07-31T09:13:57;19.30;99.90
52016;DHT22;38032;53.326;6.472;2023-07-31T09:16:28;19.40;99.90
52016;DHT22;38032;53.326;6.472;2023-07-31T09:18:58;19.40;99.90
52016;DHT22;38032;53.326;6.472;2023-07-31T09:21:24;19.50;99.90
52016;DHT22;38032;53.326;6.472;2023-07-31T09:23:51;19.50;99.90
52016;DHT22;38032;53.326;6.472;2023-07-31T09:26:34;19.50;99.90
52016;DHT22;38032;53.326;6.472;2023-07-31T09:29:01;19.60;99.90
52016;DHT22;38032;53.326;6.472;2023-07-31T09:31:33;19.70;99.90
52016;DHT22;38032;53.326;6.472;2023-07-31T09:33:59;19.70;99.90
52016;DHT22;38032;53.326;6.472;2023-07-31T09:36:29;19.80;99.90
52016;DHT22;38032;53.326;6.472;2023-07-31T09:38:56;19.80;99.90
52016;DHT22;38032;53.326;6.472;2023-07-31T09:41:27;19.90;99.90
52016;DHT22;38032;53.326;6.472;2023-07-31T09:43:53;19.90;99.90
52016;DHT22;38032;53.326;6.472;2023-07-31T09:46:20;19.80;99.90
52016;DHT22;38032;53.326;6.472;2023-07-31T09:48:47;19.90;99.90
52016;DHT22;38032;53.326;6.472;2023-07-31T09:51:13;20.00;99.90
52016;DHT22;38032;53.326;6.472;2023-07-31T09:53:39;19.90;99.90
52016;DHT22;38032;53.326;6.472;2023-07-31T09:56:06;19.90;99.90
52016;DHT22;38032;53.326;6.472;2023-07-31T09:58:34;20.00;99.90
52016;DHT22;38032;53.326;6.472;2023-07-31T10:01:02;19.90;99.90
52016;DHT22;38032;53.326;6.472;2023-07-31T10:03:29;19.80;99.90
52016;DHT22;38032;53.326;6.472;2023-07-31T10:05:58;19.90;99.90
52016;DHT22;38032;53.326;6.472;2023-07-31T10:08:28;19.90;99.90
52016;DHT22;38032;53.326;6.472;2023-07-31T10:10:58;19.90;99.90
52016;DHT22;38032;53.326;6.472;2023-07-31T10:13:24;19.90;99.90
52016;DHT22;38032;53.326;6.472;2023-07-31T10:15:50;20.00;99.90
52016;DHT22;38032;53.326;6.472;2023-07-31T10:18:18;20.10;99.90
52016;DHT22;38032;53.326;6.472;2023-07-31T10:20:46;20.30;99.90
52016;DHT22;38032;53.326;6.472;2023-07-31T10:23:12;20.10;99.90
52016;DHT22;38032;53.326;6.472;2023-07-31T10:25:39;20.30;99.90
52016;DHT22;38032;53.326;6.472;2023-07-31T10:28:05;20.40;99.90
52016;DHT22;38032;53.326;6.472;2023-07-31T10:30:33;20.90;99.90
52016;DHT22;38032;53.326;6.472;2023-07-31T10:33:01;20.30;99.90
52016;DHT22;38032;53.326;6.472;2023-07-31T10:35:28;20.30;99.90
52016;DHT22;38032;53.326;6.472;2023-07-31T10:37:54;20.30;99.90
52016;DHT22;38032;53.326;6.472;2023-07-31T10:40:26;20.30;99.90
52016;DHT22;38032;53.326;6.472;2023-07-31T10:42:55;20.10;99.90
52016;DHT22;38032;53.326;6.472;2023-07-31T10:45:31;20.10;99.90
52016;DHT22;38032;53.326;6.472;2023-07-31T10:48:00;20.10;99.90
52016;DHT22;38032;53.326;6.472;2023-07-31T10:50:26;20.20;99.90
52016;DHT22;38032;53.326;6.472;2023-07-31T10:52:54;20.40;99.90
52016;DHT22;38032;53.326;6.472;2023-07-31T10:55:27;20.30;99.90
52016;DHT22;38032;53.326;6.472;2023-07-31T10:57:55;20.50;99.90
52016;DHT22;38032;53.326;6.472;2023-07-31T11:00:24;20.50;99.90
52016;DHT22;38032;53.326;6.472;2023-07-31T11:02:58;20.50;99.90
52016;DHT22;38032;53.326;6.472;2023-07-31T11:05:45;20.50;99.90
52016;DHT22;38032;53.326;6.472;2023-07-31T11:08:25;21.00;99.90
52016;DHT22;38032;53.326;6.472;2023-07-31T11:11:06;20.80;99.90
52016;DHT22;38032;53.326;6.472;2023-07-31T11:13:47;21.30;99.90
52016;DHT22;38032;53.326;6.472;2023-07-31T11:16:21;21.40;99.90
52016;DHT22;38032;53.326;6.472;2023-07-31T11:18:48;21.40;99.90
52016;DHT22;38032;53.326;6.472;2023-07-31T11:21:18;21.70;99.90
52016;DHT22;38032;53.326;6.472;2023-07-31T11:23:49;21.50;99.90
52016;DHT22;38032;53.326;6.472;2023-07-31T11:26:15;21.70;99.90
52016;DHT22;38032;53.326;6.472;2023-07-31T11:28:42;21.60;99.90
52016;DHT22;38032;53.326;6.472;2023-07-31T11:31:09;21.40;99.90
52016;DHT22;38032;53.326;6.472;2023-07-31T11:33:36;21.50;99.90
52016;DHT22;38032;53.326;6.472;2023-07-31T11:36:02;21.30;99.90
52016;DHT22;38032;53.326;6.472;2023-07-31T11:38:30;21.60;99.90
52016;DHT22;38032;53.326;6.472;2023-07-31T11:40:59;21.70;99.90
52016;DHT22;38032;53.326;6.472;2023-07-31T11:43:25;21.60;99.90
52016;DHT22;38032;53.326;6.472;2023-07-31T11:45:56;21.60;99.90
52016;DHT22;38032;53.326;6.472;2023-07-31T11:48:23;21.60;99.90
52016;DHT22;38032;53.326;6.472;2023-07-31T11:50:51;21.50;99.90
52016;DHT22;38032;53.326;6.472;2023-07-31T11:53:23;21.60;99.90
52016;DHT22;38032;53.326;6.472;2023-07-31T11:55:50;21.70;99.90
52016;DHT22;38032;53.326;6.472;2023-07-31T11:58:17;21.50;99.90
52016;DHT22;38032;53.326;6.472;2023-07-31T12:00:44;21.80;99.90
52016;DHT22;38032;53.326;6.472;2023-07-31T12:03:11;21.80;99.90
52016;DHT22;38032;53.326;6.472;2023-07-31T12:05:37;21.80;99.90
52016;DHT22;38032;53.326;6.472;2023-07-31T12:08:09;21.80;99.90
52016;DHT22;38032;53.326;6.472;2023-07-31T12:10:37;21.90;99.90
52016;DHT22;38032;53.326;6.472;2023-07-31T12:13:05;21.90;99.90
52016;DHT22;38032;53.326;6.472;2023-07-31T12:15:37;22.00;99.90
52016;DHT22;38032;53.326;6.472;2023-07-31T12:18:05;22.30;99.90
52016;DHT22;38032;53.326;6.472;2023-07-31T12:20:32;22.30;99.90
52016;DHT22;38032;53.326;6.472;2023-07-31T12:22:58;22.70;99.90
52016;DHT22;38032;53.326;6.472;2023-07-31T12:25:29;22.10;99.90
52016;DHT22;38032;53.326;6.472;2023-07-31T12:27:55;22.20;99.90
52016;DHT22;38032;53.326;6.472;2023-07-31T12:30:29;22.30;99.90
52016;DHT22;38032;53.326;6.472;2023-07-31T12:32:55;22.40;99.90
52016;DHT22;38032;53.326;6.472;2023-07-31T12:35:21;22.50;99.90
52016;DHT22;38032;53.326;6.472;2023-07-31T12:37:47;22.20;99.90
52016;DHT22;38032;53.326;6.472;2023-07-31T12:40:13;22.50;99.90
52016;DHT22;38032;53.326;6.472;2023-07-31T12:42:39;22.50;99.90
52016;DHT22;38032;53.326;6.472;2023-07-31T12:45:06;22.20;99.90
52016;DHT22;38032;53.326;6.472;2023-07-31T12:47:32;22.50;99.90
52016;DHT22;38032;53.326;6.472;2023-07-31T12:49:58;22.10;99.90
52016;DHT22;38032;53.326;6.472;2023-07-31T12:52:24;22.20;99.90
52016;DHT22;38032;53.326;6.472;2023-07-31T12:54:50;22.10;99.90
52016;DHT22;38032;53.326;6.472;2023-07-31T12:57:16;22.00;99.90
52016;DHT22;38032;53.326;6.472;2023-07-31T12:59:42;22.20;99.90
52016;DHT22;38032;53.326;6.472;2023-07-31T13:02:08;22.00;99.90
52016;DHT22;38032;53.326;6.472;2023-07-31T13:04:34;22.20;99.90
52016;DHT22;38032;53.326;6.472;2023-07-31T13:07:00;22.10;99.90
52016;DHT22;38032;53.326;6.472;2023-07-31T13:09:26;22.10;99.90
52016;DHT22;38032;53.326;6.472;2023-07-31T13:11:52;21.90;99.90
52016;DHT22;38032;53.326;6.472;2023-07-31T13:14:18;22.00;99.90
52016;DHT22;38032;53.326;6.472;2023-07-31T13:16:44;22.00;99.90
52016;DHT22;38032;53.326;6.472;2023-07-31T13:19:10;22.10;99.90
52016;DHT22;38032;53.326;6.472;2023-07-31T13:21:36;21.90;99.90
52016;DHT22;38032;53.326;6.472;2023-07-31T13:24:02;22.00;99.90
52016;DHT22;38032;53.326;6.472;2023-07-31T13:26:30;21.80;99.90
52016;DHT22;38032;53.326;6.472;2023-07-31T13:28:55;22.00;99.90
52016;DHT22;38032;53.326;6.472;2023-07-31T13:31:21;21.80;99.90
52016;DHT22;38032;53.326;6.472;2023-07-31T13:33:49;21.50;99.90
52016;DHT22;38032;53.326;6.472;2023-07-31T13:36:15;21.70;99.90
52016;DHT22;38032;53.326;6.472;2023-07-31T13:38:40;21.90;99.90
52016;DHT22;38032;53.326;6.472;2023-07-31T13:41:06;21.60;99.90
52016;DHT22;38032;53.326;6.472;2023-07-31T13:43:32;21.80;99.90
52016;DHT22;38032;53.326;6.472;2023-07-31T13:45:58;21.90;99.90
52016;DHT22;38032;53.326;6.472;2023-07-31T13:48:34;21.80;99.90
52016;DHT22;38032;53.326;6.472;2023-07-31T13:51:00;21.70;99.90
52016;DHT22;38032;53.326;6.472;2023-07-31T13:53:26;21.60;99.90
52016;DHT22;38032;53.326;6.472;2023-07-31T13:55:51;22.10;99.90
52016;DHT22;38032;53.326;6.472;2023-07-31T13:58:18;22.10;99.90
52016;DHT22;38032;53.326;6.472;2023-07-31T14:00:44;22.30;99.90
52016;DHT22;38032;53.326;6.472;2023-07-31T14:03:09;22.40;99.90
52016;DHT22;38032;53.326;6.472;2023-07-31T14:05:35;22.30;99.90
52016;DHT22;38032;53.326;6.472;2023-07-31T14:08:01;22.60;99.90
52016;DHT22;38032;53.326;6.472;2023-07-31T14:10:27;22.50;99.90
52016;DHT22;38032;53.326;6.472;2023-07-31T14:12:53;22.60;99.90
52016;DHT22;38032;53.326;6.472;2023-07-31T14:15:19;22.30;99.90
52016;DHT22;38032;53.326;6.472;2023-07-31T14:17:45;22.40;99.90
52016;DHT22;38032;53.326;6.472;2023-07-31T14:20:11;22.60;99.90
52016;DHT22;38032;53.326;6.472;2023-07-31T14:22:37;22.50;99.90
52016;DHT22;38032;53.326;6.472;2023-07-31T14:25:04;22.50;99.90
52016;DHT22;38032;53.326;6.472;2023-07-31T14:27:30;22.40;99.90
52016;DHT22;38032;53.326;6.472;2023-07-31T14:29:56;22.40;99.90
52016;DHT22;38032;53.326;6.472;2023-07-31T14:32:22;22.20;99.90
52016;DHT22;38032;53.326;6.472;2023-07-31T14:34:51;22.10;99.90
52016;DHT22;38032;53.326;6.472;2023-07-31T14:37:17;22.20;99.90
52016;DHT22;38032;53.326;6.472;2023-07-31T14:39:43;22.30;99.90
52016;DHT22;38032;53.326;6.472;2023-07-31T14:42:09;21.90;99.90
52016;DHT22;38032;53.326;6.472;2023-07-31T14:44:35;22.10;99.90
52016;DHT22;38032;53.326;6.472;2023-07-31T14:47:01;22.10;99.90
52016;DHT22;38032;53.326;6.472;2023-07-31T14:49:27;21.90;99.90
52016;DHT22;38032;53.326;6.472;2023-07-31T14:51:54;21.90;99.90
52016;DHT22;38032;53.326;6.472;2023-07-31T14:54:20;22.10;99.90
52016;DHT22;38032;53.326;6.472;2023-07-31T14:56:46;22.10;99.90
52016;DHT22;38032;53.326;6.472;2023-07-31T14:59:12;21.90;99.90
52016;DHT22;38032;53.326;6.472;2023-07-31T15:01:38;21.90;99.90
52016;DHT22;38032;53.326;6.472;2023-07-31T15:04:04;21.80;99.90
52016;DHT22;38032;53.326;6.472;2023-07-31T15:06:30;21.90;99.90
52016;DHT22;38032;53.326;6.472;2023-07-31T15:08:55;21.80;99.90
52016;DHT22;38032;53.326;6.472;2023-07-31T15:11:21;21.70;99.90
52016;DHT22;38032;53.326;6.472;2023-07-31T15:13:47;21.90;99.90
52016;DHT22;38032;53.326;6.472;2023-07-31T15:16:13;21.60;99.90
52016;DHT22;38032;53.326;6.472;2023-07-31T15:18:39;21.90;99.90
52016;DHT22;38032;53.326;6.472;2023-07-31T15:21:05;21.70;99.90
52016;DHT22;38032;53.326;6.472;2023-07-31T15:23:32;21.80;99.90
52016;DHT22;38032;53.326;6.472;2023-07-31T15:25:58;21.80;99.90
52016;DHT22;38032;53.326;6.472;2023-07-31T15:28:24;21.50;99.90
52016;DHT22;38032;53.326;6.472;2023-07-31T15:30:50;21.50;99.90
52016;DHT22;38032;53.326;6.472;2023-07-31T15:33:16;21.60;99.90